Airfield :







YOU CAN JOIN US ON...

 
LOGIN :

Register | Disclaimer

   EN    FR    IT 

 









Legend :    VFR   Marginal VFR   IFR   Intensive IFR   Very Intensive IFR
Visi :
Ceiling :
>= 8 km
>= 3000ft
5 to 8 km
1000 to 3000 ft
1500m to 5 km
500 to 1000 ft
800 to 1500m
200 to 500 ft
< 800m
< 200 ft
Symbols :   Thunderstorms  Fog  Heavy snow  Heavy precipitations  Wind > 20 kt







- Airport Elevation : 1161 ft


KBML - Berlin Regional

CURRENT METAR :
  • 201752Z AUTO 33006KT 10SM CLR 24/09 A3014 RMK AO2 SLP208 T02390089 10244 20039 56026

EXPIRED METARs :
  • 201652Z AUTO VRB04KT 10SM FEW120 23/08 A3016 RMK AO2 SLP216 T02280083
  • 201552Z AUTO VRB04KT 10SM BKN110 22/09 A3019 RMK AO2 SLP226 T02170094

TAF N/A
No reported NOTAMs for that airfield.



MET'MAP, your aeronautical weather chart ! - Copyright ORBIFLY December 2007 - Disclaimer

ORBIFLY MET'MAP TEAM :

Programming & Development : Alexandra Zaïnal
Concept & Development : Baudouin d'Aumeries
Co-Development & Prog : Marc-Olivier Méhu
Technical & hardware support : Manuel Goepfert

Contact : metmap@orbifly.com




SOURCES & CREDITS :

   NOAA